sensor_id;sensor_type;location;lat;lon;timestamp;pressure;altitude;pressure_sealevel;temperature
75822;BMP180;64454;51.984;9.838;2023-06-26T00:00:08;100116.00;;;20.10
75822;BMP180;64454;51.984;9.838;2023-06-26T00:02:36;100110.00;;;20.20
75822;BMP180;64454;51.984;9.838;2023-06-26T00:05:04;100113.00;;;20.20
75822;BMP180;64454;51.984;9.838;2023-06-26T00:07:32;100122.00;;;20.10
75822;BMP180;64454;51.984;9.838;2023-06-26T00:10:01;100115.00;;;20.20
75822;BMP180;64454;51.984;9.838;2023-06-26T00:12:28;100116.00;;;20.20
75822;BMP180;64454;51.984;9.838;2023-06-26T00:14:56;100121.00;;;20.40
75822;BMP180;64454;51.984;9.838;2023-06-26T00:17:23;100113.00;;;20.30
75822;BMP180;64454;51.984;9.838;2023-06-26T00:19:50;100111.00;;;20.40
75822;BMP180;64454;51.984;9.838;2023-06-26T00:22:18;100103.00;;;20.20
75822;BMP180;64454;51.984;9.838;2023-06-26T00:24:46;100106.00;;;20.40
75822;BMP180;64454;51.984;9.838;2023-06-26T00:27:13;100102.00;;;20.30
75822;BMP180;64454;51.984;9.838;2023-06-26T00:29:39;100099.00;;;20.20
75822;BMP180;64454;51.984;9.838;2023-06-26T00:32:06;100094.00;;;20.20
75822;BMP180;64454;51.984;9.838;2023-06-26T00:34:33;100098.00;;;20.20
75822;BMP180;64454;51.984;9.838;2023-06-26T00:37:00;100097.00;;;20.40
75822;BMP180;64454;51.984;9.838;2023-06-26T00:39:27;100093.00;;;20.50
75822;BMP180;64454;51.984;9.838;2023-06-26T00:41:55;100095.00;;;20.50
75822;BMP180;64454;51.984;9.838;2023-06-26T00:44:22;100092.00;;;20.60
75822;BMP180;64454;51.984;9.838;2023-06-26T00:46:49;100090.00;;;20.60
75822;BMP180;64454;51.984;9.838;2023-06-26T00:49:19;100086.00;;;20.50
75822;BMP180;64454;51.984;9.838;2023-06-26T00:51:48;100084.00;;;20.60
75822;BMP180;64454;51.984;9.838;2023-06-26T00:54:17;100083.00;;;20.70
75822;BMP180;64454;51.984;9.838;2023-06-26T00:56:48;100078.00;;;20.60
75822;BMP180;64454;51.984;9.838;2023-06-26T00:59:19;100075.00;;;20.50
75822;BMP180;64454;51.984;9.838;2023-06-26T01:01:46;100075.00;;;20.60
75822;BMP180;64454;51.984;9.838;2023-06-26T01:04:15;100074.00;;;20.50
75822;BMP180;64454;51.984;9.838;2023-06-26T01:06:47;100074.00;;;20.40
75822;BMP180;64454;51.984;9.838;2023-06-26T01:09:19;100067.00;;;20.40
75822;BMP180;64454;51.984;9.838;2023-06-26T01:11:47;100061.00;;;20.50
75822;BMP180;64454;51.984;9.838;2023-06-26T01:14:17;100062.00;;;20.40
75822;BMP180;64454;51.984;9.838;2023-06-26T01:16:47;100069.00;;;20.30
75822;BMP180;64454;51.984;9.838;2023-06-26T01:19:23;100062.00;;;20.20
75822;BMP180;64454;51.984;9.838;2023-06-26T01:21:56;100060.00;;;20.20
75822;BMP180;64454;51.984;9.838;2023-06-26T01:24:31;100054.00;;;20.20
75822;BMP180;64454;51.984;9.838;2023-06-26T01:27:01;100053.00;;;20.20
75822;BMP180;64454;51.984;9.838;2023-06-26T01:29:31;100054.00;;;20.00
75822;BMP180;64454;51.984;9.838;2023-06-26T01:32:00;100050.00;;;20.20
75822;BMP180;64454;51.984;9.838;2023-06-26T01:34:27;100043.00;;;20.10
75822;BMP180;64454;51.984;9.838;2023-06-26T01:36:54;100050.00;;;20.10
75822;BMP180;64454;51.984;9.838;2023-06-26T01:39:21;100038.00;;;20.10
75822;BMP180;64454;51.984;9.838;2023-06-26T01:41:48;100047.00;;;20.00
75822;BMP180;64454;51.984;9.838;2023-06-26T01:44:27;100046.00;;;19.90
75822;BMP180;64454;51.984;9.838;2023-06-26T01:47:00;100049.00;;;20.00
75822;BMP180;64454;51.984;9.838;2023-06-26T01:49:42;100038.00;;;20.10
75822;BMP180;64454;51.984;9.838;2023-06-26T01:52:20;100039.00;;;20.10
75822;BMP180;64454;51.984;9.838;2023-06-26T01:54:56;100032.00;;;20.10
75822;BMP180;64454;51.984;9.838;2023-06-26T01:57:27;100039.00;;;20.00
75822;BMP180;64454;51.984;9.838;2023-06-26T01:59:56;100026.00;;;19.90
75822;BMP180;64454;51.984;9.838;2023-06-26T02:02:24;100035.00;;;19.90
75822;BMP180;64454;51.984;9.838;2023-06-26T02:04:52;100024.00;;;19.90
75822;BMP180;64454;51.984;9.838;2023-06-26T02:07:18;100026.00;;;19.80
75822;BMP180;64454;51.984;9.838;2023-06-26T02:09:45;100019.00;;;19.90
75822;BMP180;64454;51.984;9.838;2023-06-26T02:12:12;100019.00;;;20.00
75822;BMP180;64454;51.984;9.838;2023-06-26T02:14:39;100016.00;;;19.80
75822;BMP180;64454;51.984;9.838;2023-06-26T02:17:07;100015.00;;;19.70
75822;BMP180;64454;51.984;9.838;2023-06-26T02:19:34;100015.00;;;19.70
75822;BMP180;64454;51.984;9.838;2023-06-26T02:22:01;100010.00;;;19.80
75822;BMP180;64454;51.984;9.838;2023-06-26T02:24:28;100019.00;;;19.60
75822;BMP180;64454;51.984;9.838;2023-06-26T02:26:56;100024.00;;;19.80
75822;BMP180;64454;51.984;9.838;2023-06-26T02:29:23;100021.00;;;19.60
75822;BMP180;64454;51.984;9.838;2023-06-26T02:31:50;100019.00;;;19.50
75822;BMP180;64454;51.984;9.838;2023-06-26T02:34:20;100013.00;;;19.70
75822;BMP180;64454;51.984;9.838;2023-06-26T02:36:47;100010.00;;;19.60
75822;BMP180;64454;51.984;9.838;2023-06-26T02:39:15;100009.00;;;19.70
75822;BMP180;64454;51.984;9.838;2023-06-26T02:41:43;100011.00;;;19.30
75822;BMP180;64454;51.984;9.838;2023-06-26T02:44:10;100002.00;;;19.50
75822;BMP180;64454;51.984;9.838;2023-06-26T02:46:38;100012.00;;;19.60
75822;BMP180;64454;51.984;9.838;2023-06-26T02:49:04;100005.00;;;19.60
75822;BMP180;64454;51.984;9.838;2023-06-26T02:51:33;100006.00;;;19.60
75822;BMP180;64454;51.984;9.838;2023-06-26T02:54:00;100005.00;;;19.60
75822;BMP180;64454;51.984;9.838;2023-06-26T02:56:27;99994.00;;;19.60
75822;BMP180;64454;51.984;9.838;2023-06-26T02:58:55;99995.00;;;19.50
75822;BMP180;64454;51.984;9.838;2023-06-26T03:01:22;99989.00;;;19.60
75822;BMP180;64454;51.984;9.838;2023-06-26T03:03:49;99990.00;;;19.60
75822;BMP180;64454;51.984;9.838;2023-06-26T03:06:16;99980.00;;;19.50
75822;BMP180;64454;51.984;9.838;2023-06-26T03:08:44;99986.00;;;19.60
75822;BMP180;64454;51.984;9.838;2023-06-26T03:11:10;99990.00;;;19.50
75822;BMP180;64454;51.984;9.838;2023-06-26T03:13:37;99981.00;;;19.50
75822;BMP180;64454;51.984;9.838;2023-06-26T03:16:05;99985.00;;;19.50
75822;BMP180;64454;51.984;9.838;2023-06-26T03:18:31;99981.00;;;19.30
75822;BMP180;64454;51.984;9.838;2023-06-26T03:20:59;99982.00;;;19.30
75822;BMP180;64454;51.984;9.838;2023-06-26T03:23:26;99976.00;;;19.30
75822;BMP180;64454;51.984;9.838;2023-06-26T03:25:54;99982.00;;;19.20
75822;BMP180;64454;51.984;9.838;2023-06-26T03:28:21;99977.00;;;19.40
75822;BMP180;64454;51.984;9.838;2023-06-26T03:30:48;99978.00;;;19.30
75822;BMP180;64454;51.984;9.838;2023-06-26T03:33:15;99974.00;;;19.30
75822;BMP180;64454;51.984;9.838;2023-06-26T03:35:41;99971.00;;;19.30
75822;BMP180;64454;51.984;9.838;2023-06-26T03:38:09;99977.00;;;19.20
75822;BMP180;64454;51.984;9.838;2023-06-26T03:40:36;99972.00;;;19.40
75822;BMP180;64454;51.984;9.838;2023-06-26T03:43:04;99976.00;;;19.40
75822;BMP180;64454;51.984;9.838;2023-06-26T03:45:31;99977.00;;;19.30
75822;BMP180;64454;51.984;9.838;2023-06-26T03:47:57;99976.00;;;19.20
75822;BMP180;64454;51.984;9.838;2023-06-26T03:50:24;99972.00;;;19.40
75822;BMP180;64454;51.984;9.838;2023-06-26T03:52:51;99965.00;;;19.40
75822;BMP180;64454;51.984;9.838;2023-06-26T03:55:20;99964.00;;;19.30
75822;BMP180;64454;51.984;9.838;2023-06-26T03:57:48;99980.00;;;19.60
75822;BMP180;64454;51.984;9.838;2023-06-26T04:00:17;99974.00;;;19.50
75822;BMP180;64454;51.984;9.838;2023-06-26T04:02:44;99976.00;;;19.60
75822;BMP180;64454;51.984;9.838;2023-06-26T04:05:10;99968.00;;;19.60
75822;BMP180;64454;51.984;9.838;2023-06-26T04:07:38;99972.00;;;19.70
75822;BMP180;64454;51.984;9.838;2023-06-26T04:10:06;99970.00;;;19.60
75822;BMP180;64454;51.984;9.838;2023-06-26T04:12:33;99964.00;;;19.70
75822;BMP180;64454;51.984;9.838;2023-06-26T04:15:00;99962.00;;;19.80
75822;BMP180;64454;51.984;9.838;2023-06-26T04:17:28;99968.00;;;19.80
75822;BMP180;64454;51.984;9.838;2023-06-26T04:19:55;99964.00;;;19.80
75822;BMP180;64454;51.984;9.838;2023-06-26T04:22:21;99964.00;;;19.70
75822;BMP180;64454;51.984;9.838;2023-06-26T04:24:48;99963.00;;;19.90
75822;BMP180;64454;51.984;9.838;2023-06-26T04:27:15;99963.00;;;19.70
75822;BMP180;64454;51.984;9.838;2023-06-26T04:29:42;99957.00;;;19.80
75822;BMP180;64454;51.984;9.838;2023-06-26T04:32:09;99950.00;;;19.90
75822;BMP180;64454;51.984;9.838;2023-06-26T04:34:37;99953.00;;;19.90
75822;BMP180;64454;51.984;9.838;2023-06-26T04:37:06;99948.00;;;20.00
75822;BMP180;64454;51.984;9.838;2023-06-26T04:39:35;99954.00;;;19.90
75822;BMP180;64454;51.984;9.838;2023-06-26T04:42:04;99951.00;;;20.00
75822;BMP180;64454;51.984;9.838;2023-06-26T04:44:32;99948.00;;;20.00
75822;BMP180;64454;51.984;9.838;2023-06-26T04:46:59;99947.00;;;20.10
75822;BMP180;64454;51.984;9.838;2023-06-26T04:49:25;99947.00;;;20.20
75822;BMP180;64454;51.984;9.838;2023-06-26T04:51:55;99946.00;;;20.20
75822;BMP180;64454;51.984;9.838;2023-06-26T04:54:22;99946.00;;;20.20
75822;BMP180;64454;51.984;9.838;2023-06-26T04:56:49;99944.00;;;20.30
75822;BMP180;64454;51.984;9.838;2023-06-26T04:59:18;99939.00;;;20.40
75822;BMP180;64454;51.984;9.838;2023-06-26T05:01:47;99944.00;;;20.40
75822;BMP180;64454;51.984;9.838;2023-06-26T05:04:16;99942.00;;;20.60
75822;BMP180;64454;51.984;9.838;2023-06-26T05:06:44;99937.00;;;20.70
75822;BMP180;64454;51.984;9.838;2023-06-26T05:09:13;99938.00;;;20.70
75822;BMP180;64454;51.984;9.838;2023-06-26T05:11:41;99941.00;;;20.60
75822;BMP180;64454;51.984;9.838;2023-06-26T05:14:08;99936.00;;;20.70
75822;BMP180;64454;51.984;9.838;2023-06-26T05:16:35;99928.00;;;20.90
75822;BMP180;64454;51.984;9.838;2023-06-26T05:19:02;99925.00;;;20.90
75822;BMP180;64454;51.984;9.838;2023-06-26T05:21:30;99932.00;;;21.00
75822;BMP180;64454;51.984;9.838;2023-06-26T05:23:57;99923.00;;;21.20
75822;BMP180;64454;51.984;9.838;2023-06-26T05:26:27;99926.00;;;21.20
75822;BMP180;64454;51.984;9.838;2023-06-26T05:28:55;99918.00;;;21.10
75822;BMP180;64454;51.984;9.838;2023-06-26T05:31:23;99922.00;;;21.20
75822;BMP180;64454;51.984;9.838;2023-06-26T05:33:51;99920.00;;;21.20
75822;BMP180;64454;51.984;9.838;2023-06-26T05:36:21;99928.00;;;21.30
75822;BMP180;64454;51.984;9.838;2023-06-26T05:38:50;99913.00;;;21.40
75822;BMP180;64454;51.984;9.838;2023-06-26T05:41:17;99911.00;;;21.50
75822;BMP180;64454;51.984;9.838;2023-06-26T05:43:45;99906.00;;;21.60
75822;BMP180;64454;51.984;9.838;2023-06-26T05:46:13;99904.00;;;21.50
75822;BMP180;64454;51.984;9.838;2023-06-26T05:48:39;99907.00;;;21.60
75822;BMP180;64454;51.984;9.838;2023-06-26T05:51:08;99899.00;;;21.60
75822;BMP180;64454;51.984;9.838;2023-06-26T05:53:36;99894.00;;;21.80
75822;BMP180;64454;51.984;9.838;2023-06-26T05:56:03;99900.00;;;21.80
75822;BMP180;64454;51.984;9.838;2023-06-26T05:58:31;99907.00;;;21.80
75822;BMP180;64454;51.984;9.838;2023-06-26T06:00:59;99898.00;;;21.80
75822;BMP180;64454;51.984;9.838;2023-06-26T06:03:26;99900.00;;;21.90
75822;BMP180;64454;51.984;9.838;2023-06-26T06:05:53;99896.00;;;21.90
75822;BMP180;64454;51.984;9.838;2023-06-26T06:08:19;99898.00;;;21.90
75822;BMP180;64454;51.984;9.838;2023-06-26T06:10:46;99890.00;;;21.90
75822;BMP180;64454;51.984;9.838;2023-06-26T06:13:13;99900.00;;;22.00
75822;BMP180;64454;51.984;9.838;2023-06-26T06:15:40;99892.00;;;22.20
75822;BMP180;64454;51.984;9.838;2023-06-26T06:18:08;99888.00;;;22.30
75822;BMP180;64454;51.984;9.838;2023-06-26T06:20:35;99888.00;;;22.30
75822;BMP180;64454;51.984;9.838;2023-06-26T06:23:02;99895.00;;;22.30
75822;BMP180;64454;51.984;9.838;2023-06-26T06:25:29;99886.00;;;22.50
75822;BMP180;64454;51.984;9.838;2023-06-26T06:27:55;99894.00;;;22.70
75822;BMP180;64454;51.984;9.838;2023-06-26T06:30:22;99900.00;;;22.70
75822;BMP180;64454;51.984;9.838;2023-06-26T06:32:49;99897.00;;;22.70
75822;BMP180;64454;51.984;9.838;2023-06-26T06:35:19;99892.00;;;22.80
75822;BMP180;64454;51.984;9.838;2023-06-26T06:37:46;99900.00;;;23.00
75822;BMP180;64454;51.984;9.838;2023-06-26T06:40:13;99897.00;;;23.00
75822;BMP180;64454;51.984;9.838;2023-06-26T06:42:40;99890.00;;;23.10
75822;BMP180;64454;51.984;9.838;2023-06-26T06:45:07;99896.00;;;23.40
75822;BMP180;64454;51.984;9.838;2023-06-26T06:47:35;99885.00;;;23.60
75822;BMP180;64454;51.984;9.838;2023-06-26T06:50:02;99892.00;;;23.70
75822;BMP180;64454;51.984;9.838;2023-06-26T06:52:36;99893.00;;;23.70
75822;BMP180;64454;51.984;9.838;2023-06-26T06:55:04;99893.00;;;23.90
75822;BMP180;64454;51.984;9.838;2023-06-26T06:57:35;99898.00;;;23.70
75822;BMP180;64454;51.984;9.838;2023-06-26T07:00:04;99886.00;;;23.70
75822;BMP180;64454;51.984;9.838;2023-06-26T07:02:34;99892.00;;;23.90
75822;BMP180;64454;51.984;9.838;2023-06-26T07:05:02;99886.00;;;24.00
75822;BMP180;64454;51.984;9.838;2023-06-26T07:07:31;99888.00;;;24.10
75822;BMP180;64454;51.984;9.838;2023-06-26T07:10:03;99888.00;;;24.30
75822;BMP180;64454;51.984;9.838;2023-06-26T07:12:30;99888.00;;;24.20
75822;BMP180;64454;51.984;9.838;2023-06-26T07:14:58;99886.00;;;24.20
75822;BMP180;64454;51.984;9.838;2023-06-26T07:17:24;99889.00;;;24.40
75822;BMP180;64454;51.984;9.838;2023-06-26T07:19:51;99892.00;;;24.60
75822;BMP180;64454;51.984;9.838;2023-06-26T07:22:18;99882.00;;;24.60
75822;BMP180;64454;51.984;9.838;2023-06-26T07:24:46;99891.00;;;24.70
75822;BMP180;64454;51.984;9.838;2023-06-26T07:27:14;99891.00;;;24.80
75822;BMP180;64454;51.984;9.838;2023-06-26T07:29:41;99882.00;;;24.80
75822;BMP180;64454;51.984;9.838;2023-06-26T07:32:08;99896.00;;;25.10
75822;BMP180;64454;51.984;9.838;2023-06-26T07:34:35;99895.00;;;25.10
75822;BMP180;64454;51.984;9.838;2023-06-26T07:37:02;99894.00;;;25.10
75822;BMP180;64454;51.984;9.838;2023-06-26T07:39:29;99890.00;;;25.00
75822;BMP180;64454;51.984;9.838;2023-06-26T07:41:57;99895.00;;;25.30
75822;BMP180;64454;51.984;9.838;2023-06-26T07:44:26;99882.00;;;25.30
75822;BMP180;64454;51.984;9.838;2023-06-26T07:46:53;99892.00;;;25.40
75822;BMP180;64454;51.984;9.838;2023-06-26T07:49:20;99890.00;;;25.50
75822;BMP180;64454;51.984;9.838;2023-06-26T07:51:47;99890.00;;;25.80
75822;BMP180;64454;51.984;9.838;2023-06-26T07:54:16;99885.00;;;25.80
75822;BMP180;64454;51.984;9.838;2023-06-26T07:56:55;99882.00;;;26.10
75822;BMP180;64454;51.984;9.838;2023-06-26T07:59:23;99883.00;;;26.20
75822;BMP180;64454;51.984;9.838;2023-06-26T08:01:54;99885.00;;;26.50
75822;BMP180;64454;51.984;9.838;2023-06-26T08:04:23;99885.00;;;26.70
75822;BMP180;64454;51.984;9.838;2023-06-26T08:06:52;99883.00;;;26.70
75822;BMP180;64454;51.984;9.838;2023-06-26T08:09:24;99885.00;;;26.90
75822;BMP180;64454;51.984;9.838;2023-06-26T08:11:51;99888.00;;;26.70
75822;BMP180;64454;51.984;9.838;2023-06-26T08:14:20;99883.00;;;27.00
75822;BMP180;64454;51.984;9.838;2023-06-26T08:16:48;99885.00;;;27.50
75822;BMP180;64454;51.984;9.838;2023-06-26T08:19:19;99887.00;;;27.60
75822;BMP180;64454;51.984;9.838;2023-06-26T08:21:47;99886.00;;;27.80
75822;BMP180;64454;51.984;9.838;2023-06-26T08:24:15;99883.00;;;27.60
75822;BMP180;64454;51.984;9.838;2023-06-26T08:26:45;99895.00;;;28.00
75822;BMP180;64454;51.984;9.838;2023-06-26T08:29:13;99889.00;;;28.10
75822;BMP180;64454;51.984;9.838;2023-06-26T08:31:42;99884.00;;;28.20
75822;BMP180;64454;51.984;9.838;2023-06-26T08:34:09;99878.00;;;28.00
75822;BMP180;64454;51.984;9.838;2023-06-26T08:36:37;99878.00;;;28.10
75822;BMP180;64454;51.984;9.838;2023-06-26T08:39:04;99874.00;;;28.10
75822;BMP180;64454;51.984;9.838;2023-06-26T08:41:31;99868.00;;;28.20
75822;BMP180;64454;51.984;9.838;2023-06-26T08:43:58;99860.00;;;28.10
75822;BMP180;64454;51.984;9.838;2023-06-26T08:46:25;99860.00;;;28.20
75822;BMP180;64454;51.984;9.838;2023-06-26T08:48:56;99857.00;;;28.00
75822;BMP180;64454;51.984;9.838;2023-06-26T08:51:25;99863.00;;;28.00
75822;BMP180;64454;51.984;9.838;2023-06-26T08:53:58;99859.00;;;27.90
75822;BMP180;64454;51.984;9.838;2023-06-26T08:56:28;99854.00;;;28.30
75822;BMP180;64454;51.984;9.838;2023-06-26T08:58:58;99856.00;;;27.90
75822;BMP180;64454;51.984;9.838;2023-06-26T09:01:25;99861.00;;;28.60
75822;BMP180;64454;51.984;9.838;2023-06-26T09:03:52;99861.00;;;28.80
75822;BMP180;64454;51.984;9.838;2023-06-26T09:06:19;99870.00;;;29.60
75822;BMP180;64454;51.984;9.838;2023-06-26T09:08:46;99886.00;;;29.60
75822;BMP180;64454;51.984;9.838;2023-06-26T09:11:15;99884.00;;;30.00
75822;BMP180;64454;51.984;9.838;2023-06-26T09:13:43;99904.00;;;30.00
75822;BMP180;64454;51.984;9.838;2023-06-26T09:16:10;99897.00;;;29.90
75822;BMP180;64454;51.984;9.838;2023-06-26T09:18:37;99892.00;;;29.90
75822;BMP180;64454;51.984;9.838;2023-06-26T09:21:07;99895.00;;;30.40
75822;BMP180;64454;51.984;9.838;2023-06-26T09:23:34;99902.00;;;30.10
75822;BMP180;64454;51.984;9.838;2023-06-26T09:26:03;99902.00;;;30.20
75822;BMP180;64454;51.984;9.838;2023-06-26T09:28:32;99898.00;;;30.50
75822;BMP180;64454;51.984;9.838;2023-06-26T09:31:03;99902.00;;;30.80
75822;BMP180;64454;51.984;9.838;2023-06-26T09:33:34;99893.00;;;30.50
75822;BMP180;64454;51.984;9.838;2023-06-26T09:36:05;99891.00;;;30.50
75822;BMP180;64454;51.984;9.838;2023-06-26T09:38:34;99899.00;;;30.40
75822;BMP180;64454;51.984;9.838;2023-06-26T09:41:01;99897.00;;;30.40
75822;BMP180;64454;51.984;9.838;2023-06-26T09:43:28;99905.00;;;30.70
75822;BMP180;64454;51.984;9.838;2023-06-26T09:45:58;99901.00;;;30.50
75822;BMP180;64454;51.984;9.838;2023-06-26T09:48:25;99898.00;;;30.30
75822;BMP180;64454;51.984;9.838;2023-06-26T09:50:53;99910.00;;;30.10
75822;BMP180;64454;51.984;9.838;2023-06-26T09:53:20;99901.00;;;30.10
75822;BMP180;64454;51.984;9.838;2023-06-26T09:55:47;99909.00;;;30.40
75822;BMP180;64454;51.984;9.838;2023-06-26T09:58:14;99925.00;;;30.50
75822;BMP180;64454;51.984;9.838;2023-06-26T10:00:43;99921.00;;;30.30
75822;BMP180;64454;51.984;9.838;2023-06-26T10:03:11;99933.00;;;30.00
75822;BMP180;64454;51.984;9.838;2023-06-26T10:05:38;99946.00;;;29.50
75822;BMP180;64454;51.984;9.838;2023-06-26T10:08:06;99941.00;;;29.50
75822;BMP180;64454;51.984;9.838;2023-06-26T10:10:35;99948.00;;;29.30
75822;BMP180;64454;51.984;9.838;2023-06-26T10:13:08;99942.00;;;28.70
75822;BMP180;64454;51.984;9.838;2023-06-26T10:15:39;99957.00;;;28.60
75822;BMP180;64454;51.984;9.838;2023-06-26T10:18:07;99959.00;;;28.50
75822;BMP180;64454;51.984;9.838;2023-06-26T10:20:35;99969.00;;;28.00
75822;BMP180;64454;51.984;9.838;2023-06-26T10:23:04;99971.00;;;27.90
75822;BMP180;64454;51.984;9.838;2023-06-26T10:25:37;99986.00;;;27.40
75822;BMP180;64454;51.984;9.838;2023-06-26T10:28:09;99981.00;;;27.40
75822;BMP180;64454;51.984;9.838;2023-06-26T10:30:39;99987.00;;;27.10
75822;BMP180;64454;51.984;9.838;2023-06-26T10:33:07;99984.00;;;27.00
75822;BMP180;64454;51.984;9.838;2023-06-26T10:35:44;99991.00;;;27.00
75822;BMP180;64454;51.984;9.838;2023-06-26T10:38:11;99993.00;;;27.20
75822;BMP180;64454;51.984;9.838;2023-06-26T10:40:43;99989.00;;;27.20
75822;BMP180;64454;51.984;9.838;2023-06-26T10:43:12;99987.00;;;27.40
75822;BMP180;64454;51.984;9.838;2023-06-26T10:45:45;99994.00;;;27.20
75822;BMP180;64454;51.984;9.838;2023-06-26T10:48:14;99989.00;;;27.50
75822;BMP180;64454;51.984;9.838;2023-06-26T10:50:47;99993.00;;;27.30
75822;BMP180;64454;51.984;9.838;2023-06-26T10:53:22;100006.00;;;26.90
75822;BMP180;64454;51.984;9.838;2023-06-26T10:55:56;100008.00;;;26.60
75822;BMP180;64454;51.984;9.838;2023-06-26T10:58:31;100018.00;;;26.40
75822;BMP180;64454;51.984;9.838;2023-06-26T11:01:19;100013.00;;;26.50
75822;BMP180;64454;51.984;9.838;2023-06-26T11:04:04;100009.00;;;26.70
75822;BMP180;64454;51.984;9.838;2023-06-26T11:06:35;100032.00;;;27.30
75822;BMP180;64454;51.984;9.838;2023-06-26T11:09:13;100032.00;;;27.20
75822;BMP180;64454;51.984;9.838;2023-06-26T11:12:05;100040.00;;;27.00
75822;BMP180;64454;51.984;9.838;2023-06-26T11:14:32;100038.00;;;26.50
75822;BMP180;64454;51.984;9.838;2023-06-26T11:17:03;100023.00;;;27.50
75822;BMP180;64454;51.984;9.838;2023-06-26T11:19:30;100025.00;;;28.20
75822;BMP180;64454;51.984;9.838;2023-06-26T11:22:02;100018.00;;;27.60
75822;BMP180;64454;51.984;9.838;2023-06-26T11:24:30;100034.00;;;27.80
75822;BMP180;64454;51.984;9.838;2023-06-26T11:27:02;100014.00;;;27.60
75822;BMP180;64454;51.984;9.838;2023-06-26T11:29:32;100021.00;;;28.30
75822;BMP180;64454;51.984;9.838;2023-06-26T11:32:03;100041.00;;;28.20
75822;BMP180;64454;51.984;9.838;2023-06-26T11:34:31;100041.00;;;27.90
75822;BMP180;64454;51.984;9.838;2023-06-26T11:37:00;100027.00;;;27.40
75822;BMP180;64454;51.984;9.838;2023-06-26T11:39:28;100040.00;;;27.30
75822;BMP180;64454;51.984;9.838;2023-06-26T11:41:56;100037.00;;;27.20
75822;BMP180;64454;51.984;9.838;2023-06-26T11:44:23;100046.00;;;27.10
75822;BMP180;64454;51.984;9.838;2023-06-26T11:46:54;100047.00;;;26.90
75822;BMP180;64454;51.984;9.838;2023-06-26T11:49:22;100050.00;;;26.60
75822;BMP180;64454;51.984;9.838;2023-06-26T11:51:53;100047.00;;;26.30
75822;BMP180;64454;51.984;9.838;2023-06-26T11:54:29;100049.00;;;26.60
75822;BMP180;64454;51.984;9.838;2023-06-26T11:56:58;100055.00;;;26.80
75822;BMP180;64454;51.984;9.838;2023-06-26T11:59:34;100056.00;;;26.70
75822;BMP180;64454;51.984;9.838;2023-06-26T12:02:05;100060.00;;;26.50
75822;BMP180;64454;51.984;9.838;2023-06-26T12:04:33;100063.00;;;26.20
75822;BMP180;64454;51.984;9.838;2023-06-26T12:07:02;100067.00;;;26.30
75822;BMP180;64454;51.984;9.838;2023-06-26T12:09:31;100059.00;;;26.70
75822;BMP180;64454;51.984;9.838;2023-06-26T12:12:01;100064.00;;;26.90
75822;BMP180;64454;51.984;9.838;2023-06-26T12:14:29;100065.00;;;27.20
75822;BMP180;64454;51.984;9.838;2023-06-26T12:17:04;100057.00;;;27.90
75822;BMP180;64454;51.984;9.838;2023-06-26T12:19:33;100061.00;;;28.20
75822;BMP180;64454;51.984;9.838;2023-06-26T12:22:06;100059.00;;;28.70
75822;BMP180;64454;51.984;9.838;2023-06-26T12:24:38;100051.00;;;29.00
75822;BMP180;64454;51.984;9.838;2023-06-26T12:27:09;100063.00;;;28.50
75822;BMP180;64454;51.984;9.838;2023-06-26T12:29:38;100055.00;;;27.80
75822;BMP180;64454;51.984;9.838;2023-06-26T12:32:08;100053.00;;;27.30
75822;BMP180;64454;51.984;9.838;2023-06-26T12:34:37;100057.00;;;27.10
75822;BMP180;64454;51.984;9.838;2023-06-26T12:37:07;100064.00;;;26.80
75822;BMP180;64454;51.984;9.838;2023-06-26T12:39:51;100086.00;;;26.50
75822;BMP180;64454;51.984;9.838;2023-06-26T12:42:19;100086.00;;;26.10
75822;BMP180;64454;51.984;9.838;2023-06-26T12:44:47;100091.00;;;26.00
75822;BMP180;64454;51.984;9.838;2023-06-26T12:47:16;100084.00;;;26.10
75822;BMP180;64454;51.984;9.838;2023-06-26T12:49:45;100087.00;;;26.70
75822;BMP180;64454;51.984;9.838;2023-06-26T12:52:15;100092.00;;;27.00
75822;BMP180;64454;51.984;9.838;2023-06-26T12:54:43;100096.00;;;27.00
75822;BMP180;64454;51.984;9.838;2023-06-26T12:57:11;100099.00;;;26.80
75822;BMP180;64454;51.984;9.838;2023-06-26T12:59:40;100092.00;;;27.10
75822;BMP180;64454;51.984;9.838;2023-06-26T13:02:08;100080.00;;;27.70
75822;BMP180;64454;51.984;9.838;2023-06-26T13:04:37;100055.00;;;28.00
75822;BMP180;64454;51.984;9.838;2023-06-26T13:07:05;100066.00;;;28.40
75822;BMP180;64454;51.984;9.838;2023-06-26T13:09:33;100063.00;;;28.30
75822;BMP180;64454;51.984;9.838;2023-06-26T13:12:01;100070.00;;;28.30
75822;BMP180;64454;51.984;9.838;2023-06-26T13:14:29;100070.00;;;28.10
75822;BMP180;64454;51.984;9.838;2023-06-26T13:16:56;100087.00;;;27.40
75822;BMP180;64454;51.984;9.838;2023-06-26T13:19:22;100077.00;;;26.90
75822;BMP180;64454;51.984;9.838;2023-06-26T13:21:49;100085.00;;;26.90
75822;BMP180;64454;51.984;9.838;2023-06-26T13:24:18;100078.00;;;26.80
75822;BMP180;64454;51.984;9.838;2023-06-26T13:26:46;100066.00;;;27.50
75822;BMP180;64454;51.984;9.838;2023-06-26T13:29:13;100070.00;;;27.70
75822;BMP180;64454;51.984;9.838;2023-06-26T13:31:43;100070.00;;;28.20
75822;BMP180;64454;51.984;9.838;2023-06-26T13:34:21;100081.00;;;28.60
75822;BMP180;64454;51.984;9.838;2023-06-26T13:36:48;100078.00;;;28.50
75822;BMP180;64454;51.984;9.838;2023-06-26T13:39:17;100079.00;;;28.50
75822;BMP180;64454;51.984;9.838;2023-06-26T13:41:46;100078.00;;;28.20
75822;BMP180;64454;51.984;9.838;2023-06-26T13:44:13;100080.00;;;27.90
75822;BMP180;64454;51.984;9.838;2023-06-26T13:46:40;100077.00;;;27.80
75822;BMP180;64454;51.984;9.838;2023-06-26T13:49:09;100059.00;;;27.60
75822;BMP180;64454;51.984;9.838;2023-06-26T13:51:36;100060.00;;;27.60
75822;BMP180;64454;51.984;9.838;2023-06-26T13:54:03;100062.00;;;27.50
75822;BMP180;64454;51.984;9.838;2023-06-26T13:56:30;100064.00;;;27.10
75822;BMP180;64454;51.984;9.838;2023-06-26T13:58:58;100062.00;;;27.10
75822;BMP180;64454;51.984;9.838;2023-06-26T14:01:25;100068.00;;;27.20
75822;BMP180;64454;51.984;9.838;2023-06-26T14:03:52;100065.00;;;27.20
75822;BMP180;64454;51.984;9.838;2023-06-26T14:06:20;100062.00;;;26.90
75822;BMP180;64454;51.984;9.838;2023-06-26T14:08:47;100073.00;;;27.20
75822;BMP180;64454;51.984;9.838;2023-06-26T14:11:14;100073.00;;;26.90